Time;durP1;ratioP1;P1;durP2;ratioP2;P2;SDS_P1;SDS_P2;PMS_P1;PMS_P2;Temp;Humidity;BMP_temperature;BMP_pressure;BME280_temperature;BME280_humidity;BME280_pressure;Samples;Min_cycle;Max_cycle;Signal;HPM_P1;HPM_P2
2021/09/21 00:00:41;;;;;;;;;;;;;;;6.95;100.00;100667.05;1755348;81;21820;-90
2021/09/21 00:03:07;;;;;;;;;;;;;;;7.03;100.00;100662.02;1754807;81;20786;-89
2021/09/21 00:05:32;;;;;;;;;;;;;;;7.02;100.00;100668.22;1732147;82;20247;-90
2021/09/21 00:07:58;;;;;;;;;;;;;;;6.98;100.00;100678.63;1726961;82;20681;-89
2021/09/21 00:10:23;;;;;;;;;;;;;;;7.02;100.00;100669.53;1733857;82;20212;-89
2021/09/21 00:12:49;;;;;;;;;;;;;;;7.04;100.00;100671.58;1740010;82;21070;-89
2021/09/21 00:15:16;;;;;;;;;;;;;;;7.07;100.00;100676.59;1723923;82;20134;-89
2021/09/21 00:17:42;;;;;;;;;;;;;;;7.09;100.00;100675.98;1732153;82;20111;-89
2021/09/21 00:20:08;;;;;;;;;;;;;;;7.09;100.00;100669.91;1708191;82;20168;-89
2021/09/21 00:22:34;;;;;;;;;;;;;;;7.13;100.00;100668.23;1742232;82;20131;-88
2021/09/21 00:25:01;;;;;;;;;;;;;;;7.14;100.00;100665.94;1736250;82;21104;-89
2021/09/21 00:27:27;;;;;;;;;;;;;;;7.15;100.00;100674.19;1733477;82;20186;-89
2021/09/21 00:29:52;;;;;;;;;;;;;;;7.11;100.00;100670.13;1735378;82;20150;-88
2021/09/21 00:32:25;;;;;;;;;;;;;;;7.05;100.00;100668.47;1730362;82;20245;-89
2021/09/21 00:34:53;;;;;;;;;;;;;;;7.02;100.00;100676.09;1728734;82;20135;-89
2021/09/21 00:37:19;;;;;;;;;;;;;;;7.07;100.00;100675.73;1737065;81;20219;-90
2021/09/21 00:39:44;;;;;;;;;;;;;;;7.03;100.00;100679.58;1733850;82;20134;-89
2021/09/21 00:42:11;;;;;;;;;;;;;;;6.97;100.00;100683.51;1733526;80;20138;-90
2021/09/21 00:44:38;;;;;;;;;;;;;;;6.96;100.00;100684.45;1732731;82;20222;-89
2021/09/21 00:47:04;;;;;;;;;;;;;;;6.95;100.00;100682.80;1728466;80;20202;-85
2021/09/21 00:49:32;;;;;;;;;;;;;;;7.01;100.00;100673.13;1736848;80;21071;-89
2021/09/21 00:51:59;;;;;;;;;;;;;;;7.05;100.00;100670.61;1733658;82;20134;-90
2021/09/21 00:54:26;;;;;;;;;;;;;;;7.07;100.00;100666.09;1736271;82;20228;-86
2021/09/21 00:56:53;;;;;;;;;;;;;;;7.09;100.00;100675.98;1732470;82;20216;-89
2021/09/21 00:59:19;;;;;;;;;;;;;;;7.13;100.00;100677.42;1706482;82;20311;-88
2021/09/21 01:01:44;;;;;;;;;;;;;;;7.14;100.00;100674.31;1731919;80;21155;-88
2021/09/21 01:04:10;;;;;;;;;;;;;;;7.01;100.00;100675.76;1731430;82;20170;-89
2021/09/21 01:06:35;;;;;;;;;;;;;;;7.08;100.00;100670.36;1730819;82;20176;-88
2021/09/21 01:09:03;;;;;;;;;;;;;;;7.07;100.00;100668.72;1733871;82;20148;-88
2021/09/21 01:11:29;;;;;;;;;;;;;;;7.02;100.00;100670.84;1734442;81;20169;-89
2021/09/21 01:13:54;;;;;;;;;;;;;;;6.92;100.00;100684.35;1733117;82;21172;-89
2021/09/21 01:16:21;;;;;;;;;;;;;;;6.91;100.00;100674.80;1733464;82;20202;-88
2021/09/21 01:18:47;;;;;;;;;;;;;;;6.99;100.00;100681.59;1738138;82;20433;-89
2021/09/21 01:21:15;;;;;;;;;;;;;;;6.99;100.00;100663.20;1736432;81;20264;-88
2021/09/21 01:23:52;;;;;;;;;;;;;;;7.00;100.00;100667.52;1729945;82;20485;-89
2021/09/21 01:26:18;;;;;;;;;;;;;;;6.98;100.00;100682.56;1731657;81;21458;-88
2021/09/21 01:28:44;;;;;;;;;;;;;;;6.98;100.00;100669.44;1731379;80;20212;-89
2021/09/21 01:31:09;;;;;;;;;;;;;;;6.94;100.00;100672.75;1734785;82;20207;-89
2021/09/21 01:33:35;;;;;;;;;;;;;;;6.94;100.00;100682.44;1730953;81;20138;-88
2021/09/21 01:36:00;;;;;;;;;;;;;;;7.03;100.00;100675.64;1731472;80;20169;-88
2021/09/21 01:38:28;;;;;;;;;;;;;;;7.03;100.00;100669.08;1738190;82;21028;-89
2021/09/21 01:40:53;;;;;;;;;;;;;;;6.95;100.00;100672.30;1728951;82;20162;-89
2021/09/21 01:43:19;;;;;;;;;;;;;;;6.93;100.00;100668.94;1720099;82;20247;-89
2021/09/21 01:45:46;;;;;;;;;;;;;;;6.90;100.00;100673.11;1725025;82;20133;-90
2021/09/21 01:48:12;;;;;;;;;;;;;;;6.83;100.00;100674.91;1718830;82;20613;-90
2021/09/21 01:50:48;;;;;;;;;;;;;;;6.86;100.00;100676.95;1719201;80;21081;-89
2021/09/21 01:53:17;;;;;;;;;;;;;;;6.81;100.00;100679.45;1726827;82;20161;-88
2021/09/21 02:00:58;;;;;;;;;;;;;;;6.73;100.00;100679.22;1725413;82;20154;-89
2021/09/21 02:03:24;;;;;;;;;;;;;;;6.72;100.00;100675.39;1742617;81;21115;-90
2021/09/21 02:05:49;;;;;;;;;;;;;;;6.78;100.00;100678.38;1728426;81;20165;-90
2021/09/21 02:08:15;;;;;;;;;;;;;;;6.73;100.00;100683.15;1731530;82;20160;-89
2021/09/21 02:10:40;;;;;;;;;;;;;;;6.70;100.00;100679.45;1730250;82;20210;-89
2021/09/21 02:13:06;;;;;;;;;;;;;;;6.66;100.00;100671.44;1736472;82;20301;-89
2021/09/21 02:15:35;;;;;;;;;;;;;;;6.65;100.00;100676.35;1733607;81;21220;-89
2021/09/21 02:18:00;;;;;;;;;;;;;;;6.70;100.00;100678.13;1731200;82;20192;-89
2021/09/21 02:20:27;;;;;;;;;;;;;;;6.73;100.00;100671.34;1710523;82;20362;-89
2021/09/21 02:22:53;;;;;;;;;;;;;;;6.67;100.00;100669.19;1735116;81;20474;-89
2021/09/21 02:25:21;;;;;;;;;;;;;;;6.69;100.00;100683.02;1709648;82;20131;-89
2021/09/21 02:27:47;;;;;;;;;;;;;;;6.71;100.00;100688.15;1731596;82;20179;-91
2021/09/21 02:30:16;;;;;;;;;;;;;;;6.73;100.00;100680.52;1725534;82;20620;-89
2021/09/21 02:32:44;;;;;;;;;;;;;;;6.74;100.00;100687.45;1733598;81;20228;-89
2021/09/21 02:35:11;;;;;;;;;;;;;;;6.64;100.00;100672.05;1730568;82;20472;-88
2021/09/21 02:37:41;;;;;;;;;;;;;;;6.79;100.00;100687.92;1727921;81;20518;-90
2021/09/21 02:40:09;;;;;;;;;;;;;;;6.80;100.00;100689.58;1731787;82;20190;-89
2021/09/21 02:42:34;;;;;;;;;;;;;;;6.78;100.00;100695.92;1723645;82;20150;-90
2021/09/21 02:45:00;;;;;;;;;;;;;;;6.80;100.00;100696.14;1734345;82;20139;-91
2021/09/21 02:47:26;;;;;;;;;;;;;;;6.85;100.00;100702.83;1735895;81;20717;-90
2021/09/21 02:49:51;;;;;;;;;;;;;;;6.83;100.00;100695.08;1736890;82;20098;-91
2021/09/21 02:52:17;;;;;;;;;;;;;;;6.81;100.00;100700.45;1729724;82;21928;-88
2021/09/21 02:54:42;;;;;;;;;;;;;;;6.78;100.00;100701.17;1711032;82;20157;-89
2021/09/21 02:57:08;;;;;;;;;;;;;;;6.76;100.00;100702.60;1735378;82;20914;-91
2021/09/21 02:59:34;;;;;;;;;;;;;;;6.75;100.00;100704.86;1735947;81;20170;-89
2021/09/21 03:02:00;;;;;;;;;;;;;;;6.74;100.00;100701.89;1737110;82;20217;-90
2021/09/21 03:04:30;;;;;;;;;;;;;;;6.83;100.00;100695.91;1736655;81;21081;-91
2021/09/21 03:07:03;;;;;;;;;;;;;;;6.81;100.00;100694.37;1739049;82;20579;-90
2021/09/21 03:12:16;;;;;;;;;;;;;;;6.77;100.00;100694.23;1735486;82;20134;-90
2021/09/21 03:17:26;;;;;;;;;;;;;;;6.80;100.00;100693.52;1739229;82;20132;-89
2021/09/21 03:19:39;;;;;;;;;;;;;;;6.78;100.00;100694.61;1730913;82;20680;-89
2021/09/21 03:22:04;;;;;;;;;;;;;;;6.86;100.00;100688.77;1732592;82;21356;-91
2021/09/21 03:24:30;;;;;;;;;;;;;;;6.83;100.00;100697.22;1733238;82;20140;-90
2021/09/21 03:26:57;;;;;;;;;;;;;;;6.80;100.00;100689.58;1735205;82;20177;-90
2021/09/21 03:29:22;;;;;;;;;;;;;;;6.75;100.00;100698.78;1731678;80;21143;-91
2021/09/21 03:31:50;;;;;;;;;;;;;;;6.73;100.00;100700.21;1734122;82;20377;-90
2021/09/21 03:34:15;;;;;;;;;;;;;;;6.65;100.00;100713.92;1742099;82;20170;-89
2021/09/21 03:36:41;;;;;;;;;;;;;;;6.63;100.00;100704.48;1739048;82;20158;-90
2021/09/21 03:39:12;;;;;;;;;;;;;;;6.49;100.00;100709.95;1736881;82;20173;-91
2021/09/21 03:41:40;;;;;;;;;;;;;;;6.44;100.00;100712.43;1733668;82;20503;-90
2021/09/21 03:44:06;;;;;;;;;;;;;;;6.45;100.00;100704.93;1735644;81;20094;-91
2021/09/21 03:46:33;;;;;;;;;;;;;;;6.44;100.00;100708.50;1738085;82;20142;-89
2021/09/21 03:48:58;;;;;;;;;;;;;;;6.40;100.00;100711.01;1737381;81;21034;-89
2021/09/21 03:51:24;;;;;;;;;;;;;;;6.37;100.00;100709.92;1738715;82;20188;-89
2021/09/21 03:53:49;;;;;;;;;;;;;;;6.30;100.00;100706.08;1739651;82;21155;-90
2021/09/21 03:56:16;;;;;;;;;;;;;;;6.23;100.00;100711.41;1729311;82;20189;-92
2021/09/21 03:58:41;;;;;;;;;;;;;;;6.23;100.00;100717.97;1738769;82;20218;-90
2021/09/21 04:01:07;;;;;;;;;;;;;;;6.17;100.00;100715.80;1738312;82;20754;-88
2021/09/21 04:03:32;;;;;;;;;;;;;;;6.14;100.00;100723.89;1734695;82;20103;-90
2021/09/21 04:05:58;;;;;;;;;;;;;;;6.10;100.00;100726.73;1714830;82;21433;-90
2021/09/21 04:08:25;;;;;;;;;;;;;;;6.09;100.00;100726.85;1715007;83;20235;-90
2021/09/21 04:10:51;;;;;;;;;;;;;;;5.94;100.00;100722.25;1714858;82;20132;-90
2021/09/21 04:13:19;;;;;;;;;;;;;;;5.87;100.00;100724.94;1714116;82;20141;-89
2021/09/21 04:15:46;;;;;;;;;;;;;;;6.00;100.00;100727.07;1713869;82;20502;-90
2021/09/21 04:18:12;;;;;;;;;;;;;;;6.03;100.00;100724.67;1710448;82;22391;-90
2021/09/21 04:20:37;;;;;;;;;;;;;;;6.07;100.00;100729.59;1712220;82;20163;-90
2021/09/21 04:23:03;;;;;;;;;;;;;;;6.00;100.00;100733.62;1714115;82;20786;-90
2021/09/21 04:25:30;;;;;;;;;;;;;;;6.00;100.00;100738.05;1681577;82;21496;-90
2021/09/21 04:27:58;;;;;;;;;;;;;;;5.91;100.00;100744.75;1713322;82;20486;-90
2021/09/21 04:30:24;;;;;;;;;;;;;;;5.88;100.00;100746.28;1714306;82;21266;-90
2021/09/21 04:32:50;;;;;;;;;;;;;;;5.89;100.00;100751.90;1708727;82;20104;-88
2021/09/21 04:35:16;;;;;;;;;;;;;;;5.87;100.00;100749.39;1710869;82;20164;-91
2021/09/21 04:37:43;;;;;;;;;;;;;;;5.93;100.00;100758.57;1712688;82;20188;-90
2021/09/21 04:40:10;;;;;;;;;;;;;;;5.85;100.00;100763.53;1714932;82;20867;-88
2021/09/21 04:42:36;;;;;;;;;;;;;;;5.87;100.00;100762.95;1688705;83;20803;-86
2021/09/21 04:45:03;;;;;;;;;;;;;;;5.92;100.00;100760.84;1710192;83;20272;-89
2021/09/21 04:47:31;;;;;;;;;;;;;;;5.94;100.00;100773.36;1712531;83;20781;-88
2021/09/21 04:49:56;;;;;;;;;;;;;;;5.98;100.00;100777.48;1708643;82;20265;-89
2021/09/21 04:52:22;;;;;;;;;;;;;;;5.93;100.00;100769.91;1715546;82;20725;-90
2021/09/21 04:54:48;;;;;;;;;;;;;;;5.94;100.00;100772.05;1707035;82;21089;-88
2021/09/21 04:57:13;;;;;;;;;;;;;;;5.99;100.00;100767.34;1708011;83;20163;-92
2021/09/21 04:59:39;;;;;;;;;;;;;;;6.08;100.00;100770.60;1709935;82;20493;-90
2021/09/21 05:02:05;;;;;;;;;;;;;;;6.17;100.00;100773.49;1703052;82;20156;-90
2021/09/21 05:04:30;;;;;;;;;;;;;;;6.19;100.00;100774.23;1706504;83;20201;-90
2021/09/21 05:06:58;;;;;;;;;;;;;;;6.16;100.00;100783.64;1736489;82;21110;-88
2021/09/21 05:09:24;;;;;;;;;;;;;;;6.19;100.00;100784.73;1731941;82;20198;-88
2021/09/21 05:11:49;;;;;;;;;;;;;;;6.28;100.00;100784.05;1727799;82;20216;-85
2021/09/21 05:14:15;;;;;;;;;;;;;;;6.23;100.00;100791.40;1737412;82;20119;-87
2021/09/21 05:16:41;;;;;;;;;;;;;;;6.27;100.00;100792.86;1733748;82;20849;-90
2021/09/21 05:19:11;;;;;;;;;;;;;;;6.28;100.00;100791.92;1733480;82;20540;-88
2021/09/21 05:21:38;;;;;;;;;;;;;;;6.27;100.00;100798.93;1733061;82;20813;-90
2021/09/21 05:24:04;;;;;;;;;;;;;;;6.29;100.00;100802.75;1732422;82;20421;-90
2021/09/21 05:26:30;;;;;;;;;;;;;;;6.29;100.00;100796.20;1735746;81;20228;-93
2021/09/21 05:28:56;;;;;;;;;;;;;;;6.35;100.00;100798.37;1735525;82;20178;-91
2021/09/21 05:31:21;;;;;;;;;;;;;;;6.38;100.00;100809.95;1730179;82;21090;-87
2021/09/21 05:33:47;;;;;;;;;;;;;;;6.44;100.00;100806.87;1731516;82;20630;-87
2021/09/21 05:36:12;;;;;;;;;;;;;;;6.50;100.00;100803.46;1731501;82;20188;-85
2021/09/21 05:38:38;;;;;;;;;;;;;;;6.53;100.00;100814.55;1731073;80;20725;-88
2021/09/21 05:41:03;;;;;;;;;;;;;;;6.50;100.00;100803.46;1735975;80;20130;-86
2021/09/21 05:43:32;;;;;;;;;;;;;;;6.60;100.00;100805.29;1733793;82;20973;-87
2021/09/21 05:45:58;;;;;;;;;;;;;;;6.59;100.00;100806.23;1732566;82;20175;-90
2021/09/21 05:48:23;;;;;;;;;;;;;;;6.61;100.00;100806.11;1735460;82;20224;-87
2021/09/21 05:50:49;;;;;;;;;;;;;;;6.63;100.00;100808.14;1739645;82;20619;-89
2021/09/21 05:53:15;;;;;;;;;;;;;;;6.70;100.00;100809.37;1730755;81;20181;-87
2021/09/21 05:55:40;;;;;;;;;;;;;;;6.82;100.00;100804.51;1712759;82;22775;-86
2021/09/21 05:58:09;;;;;;;;;;;;;;;6.88;100.00;100808.92;1715338;82;20475;-87
2021/09/21 06:00:36;;;;;;;;;;;;;;;6.91;100.00;100802.13;1729466;80;20581;-87
2021/09/21 06:03:02;;;;;;;;;;;;;;;6.91;100.00;100802.95;1731451;82;20193;-86
2021/09/21 06:05:28;;;;;;;;;;;;;;;6.97;100.00;100805.61;1735478;81;20161;-87
2021/09/21 06:07:55;;;;;;;;;;;;;;;7.10;100.00;100805.05;1729877;80;22659;-88
2021/09/21 06:10:22;;;;;;;;;;;;;;;7.22;100.00;100807.67;1730970;82;20487;-87
2021/09/21 06:12:47;;;;;;;;;;;;;;;7.22;100.00;100805.88;1733587;82;20494;-86
2021/09/21 06:15:14;;;;;;;;;;;;;;;7.27;100.00;100802.89;1728344;82;20118;-92
2021/09/21 06:17:41;;;;;;;;;;;;;;;7.32;100.00;100817.84;1719726;82;20178;-87
2021/09/21 06:20:09;;;;;;;;;;;;;;;7.44;100.00;100812.95;1737363;82;21086;-87
2021/09/21 06:22:36;;;;;;;;;;;;;;;7.47;100.00;100811.40;1729157;82;20083;-87
2021/09/21 06:25:02;;;;;;;;;;;;;;;7.55;100.00;100815.56;1736788;82;20202;-88
2021/09/21 06:27:30;;;;;;;;;;;;;;;7.59;100.00;100816.16;1737218;82;20217;-87
2021/09/21 06:29:58;;;;;;;;;;;;;;;7.63;100.00;100819.37;1732486;82;20213;-89
2021/09/21 06:32:24;;;;;;;;;;;;;;;7.70;100.00;100820.56;1725443;82;21324;-86
2021/09/21 06:34:50;;;;;;;;;;;;;;;7.68;100.00;100823.31;1722639;82;20197;-83
2021/09/21 06:37:16;;;;;;;;;;;;;;;7.73;100.00;100817.70;1733743;82;20166;-87
2021/09/21 06:39:41;;;;;;;;;;;;;;;7.79;100.00;100815.07;1734437;82;20157;-88
2021/09/21 06:42:08;;;;;;;;;;;;;;;7.86;100.00;100815.78;1728316;82;20134;-87
2021/09/21 06:44:33;;;;;;;;;;;;;;;7.87;99.24;100818.75;1725511;82;21095;-87
2021/09/21 06:46:59;;;;;;;;;;;;;;;7.99;98.62;100813.00;1737654;82;20170;-87
2021/09/21 06:49:24;;;;;;;;;;;;;;;8.08;97.24;100816.70;1727592;82;20461;-87
2021/09/21 06:51:51;;;;;;;;;;;;;;;8.15;97.12;100827.06;1731589;82;20670;-87
2021/09/21 06:54:17;;;;;;;;;;;;;;;8.22;95.83;100831.37;1732431;82;20205;-86
2021/09/21 06:56:42;;;;;;;;;;;;;;;8.30;95.34;100839.92;1719965;82;21090;-89
2021/09/21 06:59:08;;;;;;;;;;;;;;;8.41;95.08;100851.75;1724691;82;21184;-88
2021/09/21 07:01:33;;;;;;;;;;;;;;;8.47;93.77;100854.37;1728606;82;20166;-87
2021/09/21 07:04:00;;;;;;;;;;;;;;;8.55;94.02;100843.59;1735260;82;20130;-87
2021/09/21 07:06:26;;;;;;;;;;;;;;;8.68;92.38;100858.38;1732147;81;20201;-87
2021/09/21 07:08:51;;;;;;;;;;;;;;;8.74;91.64;100857.87;1737200;80;21025;-87
2021/09/21 07:11:19;;;;;;;;;;;;;;;8.92;91.56;100858.98;1729907;82;20152;-87
2021/09/21 07:13:44;;;;;;;;;;;;;;;9.04;91.02;100870.77;1734187;81;20130;-87
2021/09/21 07:16:10;;;;;;;;;;;;;;;9.22;89.27;100881.08;1732957;81;20716;-87
2021/09/21 07:18:36;;;;;;;;;;;;;;;9.23;86.81;100870.91;1731818;82;20795;-87
2021/09/21 07:21:02;;;;;;;;;;;;;;;9.30;85.35;100868.09;1736218;82;21226;-89
2021/09/21 07:23:32;;;;;;;;;;;;;;;9.39;85.04;100877.02;1734596;82;20216;-84
2021/09/21 07:25:57;;;;;;;;;;;;;;;9.32;84.38;100876.72;1728251;82;20244;-86
2021/09/21 07:28:23;;;;;;;;;;;;;;;9.44;83.93;100887.17;1733084;82;20586;-91
2021/09/21 07:30:48;;;;;;;;;;;;;;;9.44;84.56;100885.86;1717132;82;20247;-89
2021/09/21 07:33:15;;;;;;;;;;;;;;;9.61;84.56;100873.38;1736326;82;21192;-85
2021/09/21 07:35:42;;;;;;;;;;;;;;;9.79;82.94;100880.66;1733763;82;20138;-88
2021/09/21 07:38:08;;;;;;;;;;;;;;;10.02;82.62;100876.88;1738235;81;20176;-88
2021/09/21 07:40:35;;;;;;;;;;;;;;;10.12;82.74;100866.83;1732578;82;20155;-88
2021/09/21 07:43:05;;;;;;;;;;;;;;;10.22;82.29;100879.55;1732462;82;20187;-87
2021/09/21 07:45:31;;;;;;;;;;;;;;;10.28;81.17;100864.48;1735190;82;20130;-90
2021/09/21 07:47:59;;;;;;;;;;;;;;;10.23;79.91;100869.34;1734663;81;20525;-85
2021/09/21 07:50:25;;;;;;;;;;;;;;;10.16;79.66;100872.17;1736638;82;20170;-87
2021/09/21 07:52:52;;;;;;;;;;;;;;;10.14;80.38;100883.36;1729551;82;20988;-87
2021/09/21 07:55:19;;;;;;;;;;;;;;;10.24;80.24;100890.83;1742320;81;20170;-89
2021/09/21 07:57:44;;;;;;;;;;;;;;;10.35;79.95;100892.05;1736352;82;21136;-87
2021/09/21 08:00:11;;;;;;;;;;;;;;;10.29;80.10;100885.96;1711789;82;20169;-89
2021/09/21 08:02:37;;;;;;;;;;;;;;;10.40;79.81;100895.60;1736005;82;20169;-88
2021/09/21 08:05:05;;;;;;;;;;;;;;;10.48;79.03;100890.95;1718976;82;20158;-87
2021/09/21 08:07:32;;;;;;;;;;;;;;;10.77;78.32;100893.12;1730993;82;20186;-89
2021/09/21 08:10:01;;;;;;;;;;;;;;;10.83;77.87;100900.98;1731005;82;20180;-86
2021/09/21 08:12:29;;;;;;;;;;;;;;;10.88;77.61;100900.58;1708396;82;20195;-90
2021/09/21 08:14:55;;;;;;;;;;;;;;;10.84;77.12;100908.42;1730113;82;20173;-84
2021/09/21 08:17:22;;;;;;;;;;;;;;;10.94;77.57;100906.62;1732610;82;20186;-88
2021/09/21 08:19:49;;;;;;;;;;;;;;;11.16;76.17;100902.84;1726346;81;20470;-88
2021/09/21 08:22:15;;;;;;;;;;;;;;;11.29;75.96;100909.14;1727979;81;21153;-87
2021/09/21 08:24:42;;;;;;;;;;;;;;;11.19;75.84;100904.38;1726290;82;20118;-86
2021/09/21 08:27:09;;;;;;;;;;;;;;;11.10;75.67;100905.55;1725687;82;20202;-87
2021/09/21 08:29:34;;;;;;;;;;;;;;;11.01;76.02;100907.70;1724591;82;20232;-89
2021/09/21 08:32:04;;;;;;;;;;;;;;;11.07;76.33;100906.33;1729188;82;20854;-91
2021/09/21 08:34:33;;;;;;;;;;;;;;;11.11;76.05;100915.66;1720804;82;20175;-90
2021/09/21 08:37:03;;;;;;;;;;;;;;;11.13;76.24;100923.77;1720024;82;20188;-88
2021/09/21 08:39:27;;;;;;;;;;;;;;;10.83;76.83;100925.23;1722702;82;20180;-90
2021/09/21 08:41:54;;;;;;;;;;;;;;;10.99;76.64;100924.20;1725839;82;20153;-88
2021/09/21 08:44:20;;;;;;;;;;;;;;;10.76;76.74;100915.22;1719362;82;20224;-89
2021/09/21 08:46:48;;;;;;;;;;;;;;;10.95;77.30;100913.55;1726576;82;21239;-92
2021/09/21 08:49:14;;;;;;;;;;;;;;;11.08;77.18;100915.94;1723317;82;20223;-91
2021/09/21 08:51:42;;;;;;;;;;;;;;;11.15;76.77;100913.05;1724357;82;20229;-92
2021/09/21 08:54:09;;;;;;;;;;;;;;;11.17;76.44;100904.98;1723180;82;20158;-92
2021/09/21 08:56:43;;;;;;;;;;;;;;;11.32;76.34;100909.68;1723505;82;20647;-92
2021/09/21 08:59:13;;;;;;;;;;;;;;;11.22;75.69;100905.41;1720906;82;20373;-92
2021/09/21 09:01:50;;;;;;;;;;;;;;;11.37;76.07;100918.51;1724873;82;20316;-91
2021/09/21 09:04:15;;;;;;;;;;;;;;;11.30;75.69;100914.28;1723673;80;20153;-92
2021/09/21 09:07:12;;;;;;;;;;;;;;;11.46;76.03;100925.59;1727602;82;20148;-92
2021/09/21 09:09:27;;;;;;;;;;;;;;;11.56;75.94;100914.16;1708270;82;20181;-90
2021/09/21 09:11:58;;;;;;;;;;;;;;;;;;;;;
2021/09/21 09:14:40;;;;;;;;;;;;;;;11.45;74.42;100921.30;1723544;82;20750;-90
2021/09/21 09:17:07;;;;;;;;;;;;;;;11.50;74.41;100915.58;1719763;82;20225;-90
2021/09/21 09:19:35;;;;;;;;;;;;;;;11.63;74.07;100910.78;1723303;82;20159;-93
2021/09/21 09:22:10;;;;;;;;;;;;;;;11.54;74.01;100897.59;1711660;82;20165;-90
2021/09/21 09:24:52;;;;;;;;;;;;;;;11.52;73.20;100907.50;1725147;82;20998;-92
2021/09/21 09:27:21;;;;;;;;;;;;;;;11.42;73.38;100908.36;1733112;81;20174;-93
2021/09/21 09:30:00;;;;;;;;;;;;;;;11.44;73.45;100903.75;1708712;82;20204;-90
2021/09/21 09:32:34;;;;;;;;;;;;;;;11.46;72.87;100916.33;1714499;82;20237;-93
2021/09/21 09:34:59;;;;;;;;;;;;;;;11.43;73.08;100903.39;1734127;82;20505;-92
2021/09/21 09:37:41;;;;;;;;;;;;;;;11.55;72.33;100896.62;1732308;81;22026;-93
2021/09/21 09:40:12;;;;;;;;;;;;;;;11.74;72.53;100893.90;1677957;82;20188;-90
2021/09/21 09:42:42;;;;;;;;;;;;;;;11.91;72.71;100899.41;1714160;82;20170;-90
2021/09/21 09:45:08;;;;;;;;;;;;;;;11.97;72.34;100904.16;1728570;82;20232;-93
2021/09/21 09:47:52;;;;;;;;;;;;;;;11.84;72.41;100889.41;1734988;82;20216;-90
2021/09/21 09:50:18;;;;;;;;;;;;;;;11.91;72.53;100891.47;1737232;82;20185;-91
2021/09/21 09:52:43;;;;;;;;;;;;;;;11.94;71.66;100891.21;1728537;82;20225;-91
2021/09/21 09:55:09;;;;;;;;;;;;;;;12.18;71.23;100883.56;1740729;82;20244;-91
2021/09/21 09:57:38;;;;;;;;;;;;;;;12.25;70.54;100893.06;1731375;82;21080;-88
2021/09/21 10:00:05;;;;;;;;;;;;;;;12.15;70.44;100883.86;1707337;82;20170;-88
2021/09/21 10:02:30;;;;;;;;;;;;;;;12.04;71.02;100897.27;1731643;82;21234;-89
2021/09/21 10:04:58;;;;;;;;;;;;;;;12.06;71.11;100879.45;1721961;80;20780;-91
2021/09/21 10:07:25;;;;;;;;;;;;;;;12.17;70.37;100886.36;1735052;82;20447;-89
2021/09/21 10:09:53;;;;;;;;;;;;;;;12.34;70.33;100882.07;1715593;82;20214;-91
2021/09/21 10:12:22;;;;;;;;;;;;;;;12.32;69.84;100886.66;1731525;82;20237;-92
2021/09/21 10:14:46;;;;;;;;;;;;;;;12.29;70.61;100875.05;1723192;82;20225;-89
2021/09/21 10:17:12;;;;;;;;;;;;;;;12.37;70.59;100884.42;1720154;82;20308;-90
2021/09/21 10:19:40;;;;;;;;;;;;;;;12.29;70.65;100849.42;1701243;82;20197;-88
2021/09/21 10:22:07;;;;;;;;;;;;;;;12.17;71.54;100889.00;1711223;82;20185;-90
2021/09/21 10:24:42;;;;;;;;;;;;;;;12.21;71.98;100891.20;1731371;81;20204;-89
2021/09/21 10:27:10;;;;;;;;;;;;;;;12.16;72.71;100893.45;1713029;82;21576;-88
2021/09/21 10:29:36;;;;;;;;;;;;;;;12.16;71.66;100911.16;1732782;82;20150;-88
2021/09/21 10:32:06;;;;;;;;;;;;;;;12.20;71.92;100918.66;1731496;82;20189;-88
2021/09/21 10:34:41;;;;;;;;;;;;;;;12.09;72.11;100905.63;1724956;82;20581;-88
2021/09/21 10:37:08;;;;;;;;;;;;;;;11.96;72.89;100907.77;1735495;82;20202;-89
2021/09/21 10:39:37;;;;;;;;;;;;;;;11.94;73.13;100896.50;1710223;82;21828;-90
2021/09/21 10:42:08;;;;;;;;;;;;;;;12.09;72.61;100898.16;1730908;81;20154;-91
2021/09/21 10:44:34;;;;;;;;;;;;;;;12.03;72.31;100900.92;1718863;82;20265;-90
2021/09/21 10:47:04;;;;;;;;;;;;;;;12.12;72.52;100884.16;1734455;81;20131;-88
2021/09/21 10:49:43;;;;;;;;;;;;;;;12.05;73.06;100887.03;1729833;81;38024;-90
2021/09/21 10:52:13;;;;;;;;;;;;;;;12.13;72.76;100886.30;1729793;82;21102;-88
2021/09/21 10:54:53;;;;;;;;;;;;;;;12.32;71.84;100884.02;1731254;82;20196;-90
2021/09/21 10:57:35;;;;;;;;;;;;;;;12.34;71.52;100883.39;1730796;80;20241;-92
2021/09/21 11:00:04;;;;;;;;;;;;;;;12.42;72.37;100879.50;1729944;81;20175;-89
2021/09/21 11:02:31;;;;;;;;;;;;;;;12.42;73.26;100894.06;1725861;82;20257;-91
2021/09/21 11:04:59;;;;;;;;;;;;;;;12.48;72.96;100886.02;1725464;81;21304;-91
2021/09/21 11:07:25;;;;;;;;;;;;;;;12.54;72.89;100880.94;1723577;81;20220;-91
2021/09/21 11:09:58;;;;;;;;;;;;;;;12.59;73.63;100886.30;1728178;82;20091;-91
2021/09/21 11:12:26;;;;;;;;;;;;;;;12.53;73.97;100887.72;1721494;82;20248;-92
2021/09/21 11:14:53;;;;;;;;;;;;;;;12.36;73.93;100895.98;1707349;82;20233;-91
2021/09/21 11:17:25;;;;;;;;;;;;;;;12.50;74.42;100891.48;1727807;81;21127;-91
2021/09/21 11:19:57;;;;;;;;;;;;;;;12.57;74.04;100891.23;1731312;81;20198;-91
2021/09/21 11:22:29;;;;;;;;;;;;;;;12.63;73.64;100892.94;1723060;82;20176;-91
2021/09/21 11:25:01;;;;;;;;;;;;;;;12.67;73.95;100891.16;1722799;80;21058;-89
2021/09/21 11:27:29;;;;;;;;;;;;;;;12.60;73.22;100897.21;1724605;81;20192;-90
2021/09/21 11:30:04;;;;;;;;;;;;;;;12.57;72.85;100893.89;1721709;81;21102;-89
2021/09/21 11:32:30;;;;;;;;;;;;;;;12.66;72.97;100889.52;1734107;82;20159;-89
2021/09/21 11:35:01;;;;;;;;;;;;;;;12.46;74.23;100911.34;1735664;81;20295;-88
2021/09/21 11:37:27;;;;;;;;;;;;;;;12.46;74.10;100901.21;1732594;82;20194;-91
2021/09/21 11:39:56;;;;;;;;;;;;;;;12.71;74.30;100903.63;1736553;82;20242;-90
2021/09/21 11:42:23;;;;;;;;;;;;;;;12.74;73.80;100899.36;1725971;81;20966;-92
2021/09/21 11:44:50;;;;;;;;;;;;;;;12.86;73.16;100896.78;1723727;82;20238;-91
2021/09/21 11:47:17;;;;;;;;;;;;;;;12.87;71.48;100898.46;1722154;82;20200;-90
2021/09/21 11:49:55;;;;;;;;;;;;;;;12.99;71.61;100891.58;1726171;81;20190;-90
2021/09/21 11:52:23;;;;;;;;;;;;;;;13.13;70.69;100887.08;1728860;81;20171;-91
2021/09/21 11:54:49;;;;;;;;;;;;;;;13.24;69.47;100880.69;1727674;82;21132;-90
2021/09/21 11:57:15;;;;;;;;;;;;;;;13.12;70.21;100897.33;1707085;82;20151;-91
2021/09/21 11:59:42;;;;;;;;;;;;;;;13.20;69.85;100878.81;1712584;81;20218;-92
2021/09/21 12:02:08;;;;;;;;;;;;;;;13.22;68.15;100892.77;1724746;81;20226;-91
2021/09/21 12:04:41;;;;;;;;;;;;;;;13.15;67.59;100889.06;1729361;81;20715;-89
2021/09/21 12:07:06;;;;;;;;;;;;;;;13.13;68.18;100891.05;1728728;82;20862;-89
2021/09/21 12:09:35;;;;;;;;;;;;;;;13.24;68.69;100882.83;1730424;82;20313;-88
2021/09/21 12:12:00;;;;;;;;;;;;;;;13.32;68.51;100891.84;1719565;82;20256;-88
2021/09/21 12:14:28;;;;;;;;;;;;;;;13.29;67.39;100901.76;1727028;82;20210;-90
2021/09/21 12:16:54;;;;;;;;;;;;;;;13.24;67.17;100900.08;1732303;82;20191;-90
2021/09/21 12:19:22;;;;;;;;;;;;;;;13.20;66.99;100896.06;1730459;82;21031;-90
2021/09/21 12:21:55;;;;;;;;;;;;;;;13.13;67.09;100907.44;1735052;82;20233;-90
2021/09/21 12:24:24;;;;;;;;;;;;;;;13.18;66.92;100899.37;1728274;82;20516;-88
2021/09/21 12:26:50;;;;;;;;;;;;;;;13.12;67.02;100898.66;1724688;82;21296;-94
2021/09/21 12:29:16;;;;;;;;;;;;;;;13.16;66.23;100909.31;1701585;82;20181;-91
2021/09/21 12:31:45;;;;;;;;;;;;;;;13.10;66.66;100909.92;1731223;82;21197;-90
2021/09/21 12:34:13;;;;;;;;;;;;;;;12.98;66.78;100913.80;1722147;82;20796;-90
2021/09/21 12:36:52;;;;;;;;;;;;;;;12.97;66.35;100906.82;1737798;82;20248;-92
2021/09/21 12:39:18;;;;;;;;;;;;;;;12.86;67.06;100906.06;1721115;82;20187;-90
2021/09/21 12:41:53;;;;;;;;;;;;;;;13.01;67.38;100901.56;1703220;82;20190;-90
2021/09/21 12:44:21;;;;;;;;;;;;;;;13.05;67.42;100898.92;1724786;82;22479;-90
2021/09/21 12:46:47;;;;;;;;;;;;;;;13.10;67.59;100896.66;1719318;82;21171;-90
2021/09/21 12:49:15;;;;;;;;;;;;;;;13.13;67.36;100885.75;1684191;82;20240;-90